sensor_id;sensor_type;location;lat;lon;timestamp;P1;durP1;ratioP1;P2;durP2;ratioP2
49764;SDS011;35657;51.204;-4.130;2023-05-07T00:01:45;15.02;;;5.28;;
49764;SDS011;35657;51.204;-4.130;2023-05-07T00:04:12;17.10;;;6.85;;
49764;SDS011;35657;51.204;-4.130;2023-05-07T00:06:39;13.85;;;4.95;;
49764;SDS011;35657;51.204;-4.130;2023-05-07T00:09:05;14.95;;;5.50;;
49764;SDS011;35657;51.204;-4.130;2023-05-07T00:11:31;11.68;;;5.22;;
49764;SDS011;35657;51.204;-4.130;2023-05-07T00:13:58;9.60;;;4.85;;
49764;SDS011;35657;51.204;-4.130;2023-05-07T00:16:23;9.15;;;3.78;;
49764;SDS011;35657;51.204;-4.130;2023-05-07T00:18:49;11.50;;;4.05;;
49764;SDS011;35657;51.204;-4.130;2023-05-07T00:21:15;13.23;;;5.43;;
49764;SDS011;35657;51.204;-4.130;2023-05-07T00:23:41;12.63;;;5.97;;
49764;SDS011;35657;51.204;-4.130;2023-05-07T00:26:06;10.90;;;4.80;;
49764;SDS011;35657;51.204;-4.130;2023-05-07T00:28:32;10.32;;;5.00;;
49764;SDS011;35657;51.204;-4.130;2023-05-07T00:30:58;15.23;;;5.13;;
49764;SDS011;35657;51.204;-4.130;2023-05-07T00:33:23;13.93;;;4.72;;
49764;SDS011;35657;51.204;-4.130;2023-05-07T00:35:51;12.63;;;5.45;;
49764;SDS011;35657;51.204;-4.130;2023-05-07T00:38:17;10.18;;;4.60;;
49764;SDS011;35657;51.204;-4.130;2023-05-07T00:40:43;11.20;;;4.00;;
49764;SDS011;35657;51.204;-4.130;2023-05-07T00:43:08;21.08;;;4.57;;
49764;SDS011;35657;51.204;-4.130;2023-05-07T00:45:34;9.80;;;4.90;;
49764;SDS011;35657;51.204;-4.130;2023-05-07T00:48:00;14.07;;;4.18;;
49764;SDS011;35657;51.204;-4.130;2023-05-07T00:50:27;13.77;;;4.90;;
49764;SDS011;35657;51.204;-4.130;2023-05-07T00:52:54;11.73;;;5.13;;
49764;SDS011;35657;51.204;-4.130;2023-05-07T00:55:21;18.58;;;5.40;;
49764;SDS011;35657;51.204;-4.130;2023-05-07T00:57:47;16.13;;;4.80;;
49764;SDS011;35657;51.204;-4.130;2023-05-07T01:00:14;12.25;;;4.65;;
49764;SDS011;35657;51.204;-4.130;2023-05-07T01:02:40;13.50;;;4.88;;
49764;SDS011;35657;51.204;-4.130;2023-05-07T01:05:07;11.30;;;4.10;;
49764;SDS011;35657;51.204;-4.130;2023-05-07T01:07:36;6.68;;;4.43;;
49764;SDS011;35657;51.204;-4.130;2023-05-07T01:10:04;13.38;;;4.55;;
49764;SDS011;35657;51.204;-4.130;2023-05-07T01:12:31;10.77;;;4.40;;
49764;SDS011;35657;51.204;-4.130;2023-05-07T01:14:57;11.02;;;5.10;;
49764;SDS011;35657;51.204;-4.130;2023-05-07T01:17:23;11.30;;;4.95;;
49764;SDS011;35657;51.204;-4.130;2023-05-07T01:19:49;11.07;;;5.20;;
49764;SDS011;35657;51.204;-4.130;2023-05-07T01:22:16;10.27;;;4.72;;
49764;SDS011;35657;51.204;-4.130;2023-05-07T01:24:56;9.20;;;4.65;;
49764;SDS011;35657;51.204;-4.130;2023-05-07T01:27:24;13.05;;;4.57;;
49764;SDS011;35657;51.204;-4.130;2023-05-07T01:29:50;10.90;;;4.20;;
49764;SDS011;35657;51.204;-4.130;2023-05-07T01:32:16;15.35;;;4.57;;
49764;SDS011;35657;51.204;-4.130;2023-05-07T01:34:46;14.15;;;4.43;;
49764;SDS011;35657;51.204;-4.130;2023-05-07T01:37:14;15.20;;;5.63;;
49764;SDS011;35657;51.204;-4.130;2023-05-07T01:39:41;12.20;;;5.15;;
49764;SDS011;35657;51.204;-4.130;2023-05-07T01:42:08;11.85;;;5.07;;
49764;SDS011;35657;51.204;-4.130;2023-05-07T01:44:33;15.10;;;5.88;;
49764;SDS011;35657;51.204;-4.130;2023-05-07T01:46:59;10.98;;;5.97;;
49764;SDS011;35657;51.204;-4.130;2023-05-07T01:49:27;15.15;;;5.38;;
49764;SDS011;35657;51.204;-4.130;2023-05-07T01:51:52;12.63;;;5.00;;
49764;SDS011;35657;51.204;-4.130;2023-05-07T01:54:18;15.23;;;5.90;;
49764;SDS011;35657;51.204;-4.130;2023-05-07T01:56:45;12.07;;;5.00;;
49764;SDS011;35657;51.204;-4.130;2023-05-07T01:59:13;8.90;;;5.35;;
49764;SDS011;35657;51.204;-4.130;2023-05-07T02:01:39;13.52;;;3.95;;
49764;SDS011;35657;51.204;-4.130;2023-05-07T02:04:05;16.83;;;3.90;;
49764;SDS011;35657;51.204;-4.130;2023-05-07T02:06:30;17.88;;;5.10;;
49764;SDS011;35657;51.204;-4.130;2023-05-07T02:08:56;15.68;;;3.47;;
49764;SDS011;35657;51.204;-4.130;2023-05-07T02:11:22;12.20;;;4.35;;
49764;SDS011;35657;51.204;-4.130;2023-05-07T02:13:48;12.02;;;3.95;;
49764;SDS011;35657;51.204;-4.130;2023-05-07T02:16:13;15.95;;;4.53;;
49764;SDS011;35657;51.204;-4.130;2023-05-07T02:18:39;12.30;;;4.05;;
49764;SDS011;35657;51.204;-4.130;2023-05-07T02:21:05;13.75;;;4.05;;
49764;SDS011;35657;51.204;-4.130;2023-05-07T02:23:30;11.32;;;4.60;;
49764;SDS011;35657;51.204;-4.130;2023-05-07T02:25:56;10.90;;;3.60;;
49764;SDS011;35657;51.204;-4.130;2023-05-07T02:28:22;14.50;;;3.95;;
49764;SDS011;35657;51.204;-4.130;2023-05-07T02:30:47;9.32;;;4.28;;
49764;SDS011;35657;51.204;-4.130;2023-05-07T02:33:14;15.23;;;3.95;;
49764;SDS011;35657;51.204;-4.130;2023-05-07T02:35:39;11.38;;;3.70;;
49764;SDS011;35657;51.204;-4.130;2023-05-07T02:38:05;18.33;;;4.50;;
49764;SDS011;35657;51.204;-4.130;2023-05-07T02:40:31;14.18;;;4.32;;
49764;SDS011;35657;51.204;-4.130;2023-05-07T02:42:58;10.40;;;3.28;;
49764;SDS011;35657;51.204;-4.130;2023-05-07T02:45:24;11.07;;;3.28;;
49764;SDS011;35657;51.204;-4.130;2023-05-07T02:47:50;8.98;;;3.17;;
49764;SDS011;35657;51.204;-4.130;2023-05-07T02:50:16;13.65;;;3.83;;
49764;SDS011;35657;51.204;-4.130;2023-05-07T02:52:41;9.30;;;3.33;;
49764;SDS011;35657;51.204;-4.130;2023-05-07T02:55:07;13.32;;;4.57;;
49764;SDS011;35657;51.204;-4.130;2023-05-07T02:57:33;11.88;;;4.47;;
49764;SDS011;35657;51.204;-4.130;2023-05-07T02:59:59;18.92;;;4.15;;
49764;SDS011;35657;51.204;-4.130;2023-05-07T03:02:34;10.48;;;3.13;;
49764;SDS011;35657;51.204;-4.130;2023-05-07T03:05:00;12.10;;;4.03;;
49764;SDS011;35657;51.204;-4.130;2023-05-07T03:07:26;10.07;;;3.67;;
49764;SDS011;35657;51.204;-4.130;2023-05-07T03:09:52;4.47;;;2.72;;
49764;SDS011;35657;51.204;-4.130;2023-05-07T03:12:18;14.77;;;3.30;;
49764;SDS011;35657;51.204;-4.130;2023-05-07T03:14:44;15.90;;;3.90;;
49764;SDS011;35657;51.204;-4.130;2023-05-07T03:17:10;14.80;;;3.88;;
49764;SDS011;35657;51.204;-4.130;2023-05-07T03:19:35;7.80;;;3.60;;
49764;SDS011;35657;51.204;-4.130;2023-05-07T03:22:01;12.05;;;4.40;;
49764;SDS011;35657;51.204;-4.130;2023-05-07T03:24:27;10.02;;;3.42;;
49764;SDS011;35657;51.204;-4.130;2023-05-07T03:26:52;9.07;;;4.05;;
49764;SDS011;35657;51.204;-4.130;2023-05-07T03:29:18;10.40;;;3.83;;
49764;SDS011;35657;51.204;-4.130;2023-05-07T03:31:44;15.60;;;4.13;;
49764;SDS011;35657;51.204;-4.130;2023-05-07T03:34:10;12.20;;;3.85;;
49764;SDS011;35657;51.204;-4.130;2023-05-07T03:36:36;12.60;;;4.18;;
49764;SDS011;35657;51.204;-4.130;2023-05-07T03:39:02;13.88;;;4.03;;
49764;SDS011;35657;51.204;-4.130;2023-05-07T03:41:27;15.43;;;3.78;;
49764;SDS011;35657;51.204;-4.130;2023-05-07T03:43:54;10.10;;;2.83;;
49764;SDS011;35657;51.204;-4.130;2023-05-07T03:46:20;12.85;;;3.25;;
49764;SDS011;35657;51.204;-4.130;2023-05-07T03:48:45;14.20;;;3.13;;
49764;SDS011;35657;51.204;-4.130;2023-05-07T03:51:11;13.27;;;2.75;;
49764;SDS011;35657;51.204;-4.130;2023-05-07T03:53:37;5.32;;;3.15;;
49764;SDS011;35657;51.204;-4.130;2023-05-07T03:56:03;10.40;;;2.88;;
49764;SDS011;35657;51.204;-4.130;2023-05-07T03:58:28;7.70;;;3.15;;
49764;SDS011;35657;51.204;-4.130;2023-05-07T04:00:54;17.10;;;3.53;;
49764;SDS011;35657;51.204;-4.130;2023-05-07T04:03:20;7.95;;;2.60;;
49764;SDS011;35657;51.204;-4.130;2023-05-07T04:05:45;12.55;;;2.92;;
49764;SDS011;35657;51.204;-4.130;2023-05-07T04:08:12;8.35;;;3.38;;
49764;SDS011;35657;51.204;-4.130;2023-05-07T04:10:37;12.93;;;2.90;;
49764;SDS011;35657;51.204;-4.130;2023-05-07T04:13:03;9.20;;;2.45;;
49764;SDS011;35657;51.204;-4.130;2023-05-07T04:15:29;15.40;;;3.08;;
49764;SDS011;35657;51.204;-4.130;2023-05-07T04:17:54;7.90;;;2.85;;
49764;SDS011;35657;51.204;-4.130;2023-05-07T04:20:20;10.80;;;3.20;;
49764;SDS011;35657;51.204;-4.130;2023-05-07T04:22:46;8.77;;;3.25;;
49764;SDS011;35657;51.204;-4.130;2023-05-07T04:25:11;17.40;;;4.07;;
49764;SDS011;35657;51.204;-4.130;2023-05-07T04:27:37;10.00;;;3.15;;
49764;SDS011;35657;51.204;-4.130;2023-05-07T04:30:03;12.13;;;3.40;;
49764;SDS011;35657;51.204;-4.130;2023-05-07T04:32:29;17.08;;;3.55;;
49764;SDS011;35657;51.204;-4.130;2023-05-07T04:34:55;8.02;;;2.83;;
49764;SDS011;35657;51.204;-4.130;2023-05-07T04:37:21;9.63;;;3.33;;
49764;SDS011;35657;51.204;-4.130;2023-05-07T04:39:47;7.45;;;2.58;;
49764;SDS011;35657;51.204;-4.130;2023-05-07T04:42:16;11.23;;;3.53;;
49764;SDS011;35657;51.204;-4.130;2023-05-07T04:44:43;14.23;;;4.18;;
49764;SDS011;35657;51.204;-4.130;2023-05-07T04:47:10;9.90;;;3.20;;
49764;SDS011;35657;51.204;-4.130;2023-05-07T04:49:36;9.73;;;3.05;;
49764;SDS011;35657;51.204;-4.130;2023-05-07T04:52:03;8.57;;;3.47;;
49764;SDS011;35657;51.204;-4.130;2023-05-07T04:54:29;12.65;;;3.05;;
49764;SDS011;35657;51.204;-4.130;2023-05-07T04:56:55;10.07;;;2.90;;
49764;SDS011;35657;51.204;-4.130;2023-05-07T04:59:21;10.63;;;3.40;;
49764;SDS011;35657;51.204;-4.130;2023-05-07T05:01:47;8.43;;;3.65;;
49764;SDS011;35657;51.204;-4.130;2023-05-07T05:04:12;13.13;;;3.60;;
49764;SDS011;35657;51.204;-4.130;2023-05-07T05:06:39;12.30;;;4.20;;
49764;SDS011;35657;51.204;-4.130;2023-05-07T05:09:04;8.80;;;2.97;;
49764;SDS011;35657;51.204;-4.130;2023-05-07T05:11:30;7.13;;;3.08;;
49764;SDS011;35657;51.204;-4.130;2023-05-07T05:13:56;13.23;;;3.67;;
49764;SDS011;35657;51.204;-4.130;2023-05-07T05:16:24;7.05;;;2.92;;
49764;SDS011;35657;51.204;-4.130;2023-05-07T05:18:49;14.52;;;3.83;;
49764;SDS011;35657;51.204;-4.130;2023-05-07T05:21:17;9.20;;;3.05;;
49764;SDS011;35657;51.204;-4.130;2023-05-07T05:23:42;12.02;;;3.75;;
49764;SDS011;35657;51.204;-4.130;2023-05-07T05:26:08;15.23;;;3.53;;
49764;SDS011;35657;51.204;-4.130;2023-05-07T05:28:34;10.27;;;3.45;;
49764;SDS011;35657;51.204;-4.130;2023-05-07T05:30:59;12.90;;;2.85;;
49764;SDS011;35657;51.204;-4.130;2023-05-07T05:33:25;14.57;;;3.80;;
49764;SDS011;35657;51.204;-4.130;2023-05-07T05:35:51;14.88;;;3.92;;
49764;SDS011;35657;51.204;-4.130;2023-05-07T05:38:18;7.28;;;3.42;;
49764;SDS011;35657;51.204;-4.130;2023-05-07T05:40:43;13.23;;;3.45;;
49764;SDS011;35657;51.204;-4.130;2023-05-07T05:43:09;8.98;;;3.38;;
49764;SDS011;35657;51.204;-4.130;2023-05-07T05:45:35;12.65;;;4.22;;
49764;SDS011;35657;51.204;-4.130;2023-05-07T05:48:00;11.20;;;3.50;;
49764;SDS011;35657;51.204;-4.130;2023-05-07T05:50:26;20.58;;;5.07;;
49764;SDS011;35657;51.204;-4.130;2023-05-07T05:52:52;10.13;;;4.40;;
49764;SDS011;35657;51.204;-4.130;2023-05-07T05:55:17;13.30;;;4.35;;
49764;SDS011;35657;51.204;-4.130;2023-05-07T05:57:43;20.05;;;4.05;;
49764;SDS011;35657;51.204;-4.130;2023-05-07T06:00:09;14.10;;;4.15;;
49764;SDS011;35657;51.204;-4.130;2023-05-07T06:02:35;10.73;;;3.63;;
49764;SDS011;35657;51.204;-4.130;2023-05-07T06:05:01;13.60;;;5.07;;
49764;SDS011;35657;51.204;-4.130;2023-05-07T06:07:26;10.50;;;3.40;;
49764;SDS011;35657;51.204;-4.130;2023-05-07T06:09:52;9.77;;;3.80;;
49764;SDS011;35657;51.204;-4.130;2023-05-07T06:12:18;10.40;;;4.47;;
49764;SDS011;35657;51.204;-4.130;2023-05-07T06:14:43;9.57;;;5.50;;
49764;SDS011;35657;51.204;-4.130;2023-05-07T06:17:09;9.88;;;3.30;;
49764;SDS011;35657;51.204;-4.130;2023-05-07T06:19:35;15.38;;;3.15;;
49764;SDS011;35657;51.204;-4.130;2023-05-07T06:22:00;8.73;;;3.53;;
49764;SDS011;35657;51.204;-4.130;2023-05-07T06:24:27;13.43;;;2.70;;
49764;SDS011;35657;51.204;-4.130;2023-05-07T06:26:53;11.20;;;2.28;;
49764;SDS011;35657;51.204;-4.130;2023-05-07T06:29:19;10.40;;;3.38;;
49764;SDS011;35657;51.204;-4.130;2023-05-07T06:31:44;13.90;;;3.15;;
49764;SDS011;35657;51.204;-4.130;2023-05-07T06:34:10;9.48;;;3.03;;
49764;SDS011;35657;51.204;-4.130;2023-05-07T06:36:39;7.82;;;3.28;;
49764;SDS011;35657;51.204;-4.130;2023-05-07T06:39:05;9.40;;;4.00;;
49764;SDS011;35657;51.204;-4.130;2023-05-07T06:41:31;12.32;;;2.72;;
49764;SDS011;35657;51.204;-4.130;2023-05-07T06:43:57;11.80;;;4.25;;
49764;SDS011;35657;51.204;-4.130;2023-05-07T06:46:23;11.13;;;2.50;;
49764;SDS011;35657;51.204;-4.130;2023-05-07T06:48:48;10.60;;;3.00;;
49764;SDS011;35657;51.204;-4.130;2023-05-07T06:51:14;10.13;;;2.95;;
49764;SDS011;35657;51.204;-4.130;2023-05-07T06:53:40;10.10;;;2.83;;
49764;SDS011;35657;51.204;-4.130;2023-05-07T06:56:05;7.13;;;3.08;;
49764;SDS011;35657;51.204;-4.130;2023-05-07T06:58:31;11.32;;;3.55;;
49764;SDS011;35657;51.204;-4.130;2023-05-07T07:00:57;9.65;;;3.88;;
49764;SDS011;35657;51.204;-4.130;2023-05-07T07:03:23;11.85;;;3.15;;
49764;SDS011;35657;51.204;-4.130;2023-05-07T07:05:52;7.93;;;2.78;;
49764;SDS011;35657;51.204;-4.130;2023-05-07T07:08:18;10.90;;;3.10;;
49764;SDS011;35657;51.204;-4.130;2023-05-07T07:10:46;6.72;;;2.92;;
49764;SDS011;35657;51.204;-4.130;2023-05-07T07:13:12;7.35;;;2.95;;
49764;SDS011;35657;51.204;-4.130;2023-05-07T07:15:38;10.05;;;3.35;;
49764;SDS011;35657;51.204;-4.130;2023-05-07T07:18:05;9.13;;;2.85;;
49764;SDS011;35657;51.204;-4.130;2023-05-07T07:20:31;10.82;;;2.95;;
49764;SDS011;35657;51.204;-4.130;2023-05-07T07:22:57;9.82;;;3.00;;
49764;SDS011;35657;51.204;-4.130;2023-05-07T07:25:23;10.60;;;3.33;;
49764;SDS011;35657;51.204;-4.130;2023-05-07T07:27:49;15.73;;;3.47;;
49764;SDS011;35657;51.204;-4.130;2023-05-07T07:30:15;10.10;;;3.15;;
49764;SDS011;35657;51.204;-4.130;2023-05-07T07:32:40;11.88;;;2.97;;
49764;SDS011;35657;51.204;-4.130;2023-05-07T07:35:06;7.38;;;2.75;;
49764;SDS011;35657;51.204;-4.130;2023-05-07T07:37:32;8.82;;;2.85;;
49764;SDS011;35657;51.204;-4.130;2023-05-07T07:39:58;9.68;;;2.60;;
49764;SDS011;35657;51.204;-4.130;2023-05-07T07:42:24;6.50;;;2.75;;
49764;SDS011;35657;51.204;-4.130;2023-05-07T07:44:50;12.75;;;3.20;;
49764;SDS011;35657;51.204;-4.130;2023-05-07T07:47:16;9.80;;;2.90;;
49764;SDS011;35657;51.204;-4.130;2023-05-07T07:49:41;9.98;;;2.20;;
49764;SDS011;35657;51.204;-4.130;2023-05-07T07:52:07;11.25;;;2.85;;
49764;SDS011;35657;51.204;-4.130;2023-05-07T07:54:33;12.88;;;2.70;;
49764;SDS011;35657;51.204;-4.130;2023-05-07T07:56:58;5.10;;;2.08;;
49764;SDS011;35657;51.204;-4.130;2023-05-07T07:59:24;8.43;;;2.42;;
49764;SDS011;35657;51.204;-4.130;2023-05-07T08:01:50;11.07;;;2.45;;
49764;SDS011;35657;51.204;-4.130;2023-05-07T08:04:17;9.43;;;2.75;;
49764;SDS011;35657;51.204;-4.130;2023-05-07T08:06:43;11.02;;;2.53;;
49764;SDS011;35657;51.204;-4.130;2023-05-07T08:09:12;6.70;;;1.90;;
49764;SDS011;35657;51.204;-4.130;2023-05-07T08:11:38;8.85;;;1.85;;
49764;SDS011;35657;51.204;-4.130;2023-05-07T08:14:04;5.65;;;2.10;;
49764;SDS011;35657;51.204;-4.130;2023-05-07T08:16:30;8.05;;;2.28;;
49764;SDS011;35657;51.204;-4.130;2023-05-07T08:18:55;7.07;;;2.15;;
49764;SDS011;35657;51.204;-4.130;2023-05-07T08:21:21;6.28;;;1.90;;
49764;SDS011;35657;51.204;-4.130;2023-05-07T08:23:48;2.33;;;1.05;;
49764;SDS011;35657;51.204;-4.130;2023-05-07T08:26:13;7.70;;;1.73;;
49764;SDS011;35657;51.204;-4.130;2023-05-07T08:28:39;4.78;;;2.60;;
49764;SDS011;35657;51.204;-4.130;2023-05-07T08:31:05;7.47;;;3.65;;
49764;SDS011;35657;51.204;-4.130;2023-05-07T08:33:31;12.18;;;4.07;;
49764;SDS011;35657;51.204;-4.130;2023-05-07T08:35:56;6.95;;;2.90;;
49764;SDS011;35657;51.204;-4.130;2023-05-07T08:38:22;7.00;;;2.42;;
49764;SDS011;35657;51.204;-4.130;2023-05-07T08:40:48;5.03;;;2.30;;
49764;SDS011;35657;51.204;-4.130;2023-05-07T08:43:13;4.80;;;2.00;;
49764;SDS011;35657;51.204;-4.130;2023-05-07T08:45:42;3.30;;;1.70;;
49764;SDS011;35657;51.204;-4.130;2023-05-07T08:48:17;3.03;;;1.30;;
49764;SDS011;35657;51.204;-4.130;2023-05-07T08:50:43;4.15;;;1.60;;
49764;SDS011;35657;51.204;-4.130;2023-05-07T08:53:08;5.68;;;1.60;;
49764;SDS011;35657;51.204;-4.130;2023-05-07T08:55:34;3.08;;;1.20;;
49764;SDS011;35657;51.204;-4.130;2023-05-07T08:58:00;4.68;;;1.95;;
49764;SDS011;35657;51.204;-4.130;2023-05-07T09:00:26;4.90;;;1.52;;
49764;SDS011;35657;51.204;-4.130;2023-05-07T09:02:55;4.45;;;1.67;;
49764;SDS011;35657;51.204;-4.130;2023-05-07T09:05:21;2.67;;;1.10;;
49764;SDS011;35657;51.204;-4.130;2023-05-07T09:07:47;2.90;;;1.52;;
49764;SDS011;35657;51.204;-4.130;2023-05-07T09:10:13;6.75;;;2.97;;
49764;SDS011;35657;51.204;-4.130;2023-05-07T09:12:39;6.93;;;2.85;;
49764;SDS011;35657;51.204;-4.130;2023-05-07T09:15:05;9.13;;;2.88;;
49764;SDS011;35657;51.204;-4.130;2023-05-07T09:17:31;12.32;;;4.03;;
49764;SDS011;35657;51.204;-4.130;2023-05-07T09:20:06;4.28;;;1.13;;
49764;SDS011;35657;51.204;-4.130;2023-05-07T09:22:32;2.40;;;1.42;;
49764;SDS011;35657;51.204;-4.130;2023-05-07T09:24:58;3.47;;;1.17;;
49764;SDS011;35657;51.204;-4.130;2023-05-07T09:27:24;4.82;;;1.25;;
49764;SDS011;35657;51.204;-4.130;2023-05-07T09:29:51;2.63;;;1.20;;
49764;SDS011;35657;51.204;-4.130;2023-05-07T09:32:17;1.80;;;1.00;;
49764;SDS011;35657;51.204;-4.130;2023-05-07T09:34:42;3.80;;;0.88;;
49764;SDS011;35657;51.204;-4.130;2023-05-07T09:37:08;2.13;;;0.93;;
49764;SDS011;35657;51.204;-4.130;2023-05-07T09:39:47;2.97;;;1.02;;
49764;SDS011;35657;51.204;-4.130;2023-05-07T09:42:13;6.63;;;1.30;;
49764;SDS011;35657;51.204;-4.130;2023-05-07T09:44:45;3.55;;;2.25;;
49764;SDS011;35657;51.204;-4.130;2023-05-07T09:47:12;2.85;;;1.52;;
49764;SDS011;35657;51.204;-4.130;2023-05-07T09:49:44;7.80;;;2.20;;
49764;SDS011;35657;51.204;-4.130;2023-05-07T09:52:13;6.93;;;4.10;;
49764;SDS011;35657;51.204;-4.130;2023-05-07T09:54:39;6.80;;;1.92;;
49764;SDS011;35657;51.204;-4.130;2023-05-07T09:57:09;7.60;;;2.35;;
49764;SDS011;35657;51.204;-4.130;2023-05-07T09:59:37;4.63;;;1.27;;
49764;SDS011;35657;51.204;-4.130;2023-05-07T10:02:03;2.70;;;0.82;;
49764;SDS011;35657;51.204;-4.130;2023-05-07T10:04:30;4.43;;;1.17;;
49764;SDS011;35657;51.204;-4.130;2023-05-07T10:06:57;2.10;;;1.05;;
49764;SDS011;35657;51.204;-4.130;2023-05-07T10:09:25;7.72;;;1.60;;
49764;SDS011;35657;51.204;-4.130;2023-05-07T10:11:51;4.78;;;0.95;;
49764;SDS011;35657;51.204;-4.130;2023-05-07T10:14:17;1.58;;;1.10;;
49764;SDS011;35657;51.204;-4.130;2023-05-07T10:16:44;3.00;;;1.42;;
49764;SDS011;35657;51.204;-4.130;2023-05-07T10:19:11;3.40;;;0.98;;
49764;SDS011;35657;51.204;-4.130;2023-05-07T10:21:37;3.33;;;1.38;;
49764;SDS011;35657;51.204;-4.130;2023-05-07T10:24:12;3.55;;;0.90;;
49764;SDS011;35657;51.204;-4.130;2023-05-07T10:26:45;4.22;;;1.90;;
49764;SDS011;35657;51.204;-4.130;2023-05-07T10:34:50;3.58;;;2.00;;
49764;SDS011;35657;51.204;-4.130;2023-05-07T10:37:20;3.95;;;1.92;;
49764;SDS011;35657;51.204;-4.130;2023-05-07T10:39:46;6.70;;;2.10;;
49764;SDS011;35657;51.204;-4.130;2023-05-07T10:42:13;1.40;;;0.95;;
49764;SDS011;35657;51.204;-4.130;2023-05-07T10:44:39;6.90;;;2.03;;
49764;SDS011;35657;51.204;-4.130;2023-05-07T10:47:09;10.40;;;3.45;;
49764;SDS011;35657;51.204;-4.130;2023-05-07T10:54:43;12.27;;;3.67;;
49764;SDS011;35657;51.204;-4.130;2023-05-07T10:59:57;8.13;;;2.35;;
49764;SDS011;35657;51.204;-4.130;2023-05-07T11:02:23;2.47;;;1.27;;
49764;SDS011;35657;51.204;-4.130;2023-05-07T11:05:23;2.97;;;1.60;;
49764;SDS011;35657;51.204;-4.130;2023-05-07T11:07:54;9.48;;;1.60;;
49764;SDS011;35657;51.204;-4.130;2023-05-07T11:10:26;4.15;;;1.80;;
49764;SDS011;35657;51.204;-4.130;2023-05-07T11:13:13;9.48;;;1.65;;
49764;SDS011;35657;51.204;-4.130;2023-05-07T11:15:40;4.03;;;1.85;;
49764;SDS011;35657;51.204;-4.130;2023-05-07T11:18:09;6.03;;;1.70;;
49764;SDS011;35657;51.204;-4.130;2023-05-07T11:23:57;10.25;;;1.92;;
49764;SDS011;35657;51.204;-4.130;2023-05-07T11:25:59;7.40;;;1.42;;
49764;SDS011;35657;51.204;-4.130;2023-05-07T11:28:27;3.38;;;0.90;;
49764;SDS011;35657;51.204;-4.130;2023-05-07T11:30:53;2.58;;;1.55;;
49764;SDS011;35657;51.204;-4.130;2023-05-07T11:33:19;7.57;;;3.42;;
49764;SDS011;35657;51.204;-4.130;2023-05-07T11:35:45;9.02;;;4.93;;
49764;SDS011;35657;51.204;-4.130;2023-05-07T11:38:12;4.32;;;2.28;;
49764;SDS011;35657;51.204;-4.130;2023-05-07T11:43:18;4.82;;;1.65;;
49764;SDS011;35657;51.204;-4.130;2023-05-07T11:45:47;4.18;;;2.58;;
49764;SDS011;35657;51.204;-4.130;2023-05-07T11:48:13;4.30;;;1.63;;
49764;SDS011;35657;51.204;-4.130;2023-05-07T11:50:53;4.85;;;1.90;;
49764;SDS011;35657;51.204;-4.130;2023-05-07T11:53:25;4.55;;;3.83;;
49764;SDS011;35657;51.204;-4.130;2023-05-07T11:55:55;3.35;;;2.28;;
49764;SDS011;35657;51.204;-4.130;2023-05-07T11:58:21;4.97;;;2.58;;
49764;SDS011;35657;51.204;-4.130;2023-05-07T12:00:52;3.92;;;1.30;;
49764;SDS011;35657;51.204;-4.130;2023-05-07T12:03:20;3.67;;;1.40;;
49764;SDS011;35657;51.204;-4.130;2023-05-07T12:05:47;3.63;;;1.13;;
49764;SDS011;35657;51.204;-4.130;2023-05-07T12:08:19;2.28;;;1.08;;
49764;SDS011;35657;51.204;-4.130;2023-05-07T12:10:47;5.50;;;1.63;;
49764;SDS011;35657;51.204;-4.130;2023-05-07T12:13:17;3.50;;;2.50;;
49764;SDS011;35657;51.204;-4.130;2023-05-07T12:15:44;4.63;;;2.30;;
49764;SDS011;35657;51.204;-4.130;2023-05-07T12:18:13;4.72;;;1.67;;
49764;SDS011;35657;51.204;-4.130;2023-05-07T12:20:39;2.90;;;1.15;;
49764;SDS011;35657;51.204;-4.130;2023-05-07T12:23:06;2.92;;;1.23;;
49764;SDS011;35657;51.204;-4.130;2023-05-07T12:25:34;4.57;;;1.90;;
49764;SDS011;35657;51.204;-4.130;2023-05-07T12:28:04;4.75;;;1.58;;
49764;SDS011;35657;51.204;-4.130;2023-05-07T12:30:40;5.10;;;1.30;;
49764;SDS011;35657;51.204;-4.130;2023-05-07T12:33:05;1.63;;;1.13;;
49764;SDS011;35657;51.204;-4.130;2023-05-07T12:35:32;4.38;;;1.20;;
49764;SDS011;35657;51.204;-4.130;2023-05-07T12:38:02;4.63;;;1.15;;
49764;SDS011;35657;51.204;-4.130;2023-05-07T12:40:39;3.55;;;0.95;;
49764;SDS011;35657;51.204;-4.130;2023-05-07T12:43:20;5.70;;;1.00;;
49764;SDS011;35657;51.204;-4.130;2023-05-07T12:45:47;2.65;;;1.02;;
49764;SDS011;35657;51.204;-4.130;2023-05-07T12:48:14;4.10;;;2.30;;
49764;SDS011;35657;51.204;-4.130;2023-05-07T12:50:40;2.80;;;1.42;;
49764;SDS011;35657;51.204;-4.130;2023-05-07T12:53:06;4.28;;;1.70;;
49764;SDS011;35657;51.204;-4.130;2023-05-07T12:55:43;2.00;;;1.17;;
49764;SDS011;35657;51.204;-4.130;2023-05-07T12:58:15;4.20;;;1.50;;
49764;SDS011;35657;51.204;-4.130;2023-05-07T13:00:54;3.70;;;1.52;;
49764;SDS011;35657;51.204;-4.130;2023-05-07T13:03:36;2.60;;;1.30;;
49764;SDS011;35657;51.204;-4.130;2023-05-07T13:06:06;3.10;;;1.20;;
49764;SDS011;35657;51.204;-4.130;2023-05-07T13:08:40;11.57;;;1.45;;
49764;SDS011;35657;51.204;-4.130;2023-05-07T13:11:09;2.28;;;1.05;;
49764;SDS011;35657;51.204;-4.130;2023-05-07T13:13:35;3.10;;;1.13;;
49764;SDS011;35657;51.204;-4.130;2023-05-07T13:16:02;3.13;;;0.93;;
49764;SDS011;35657;51.204;-4.130;2023-05-07T13:18:29;1.88;;;0.98;;
49764;SDS011;35657;51.204;-4.130;2023-05-07T13:20:55;3.40;;;1.17;;
49764;SDS011;35657;51.204;-4.130;2023-05-07T13:23:21;4.32;;;1.40;;
49764;SDS011;35657;51.204;-4.130;2023-05-07T13:25:48;5.82;;;1.52;;
49764;SDS011;35657;51.204;-4.130;2023-05-07T13:28:14;3.83;;;1.55;;
49764;SDS011;35657;51.204;-4.130;2023-05-07T13:30:39;5.82;;;1.30;;
49764;SDS011;35657;51.204;-4.130;2023-05-07T13:33:05;2.78;;;1.73;;
49764;SDS011;35657;51.204;-4.130;2023-05-07T13:35:31;2.17;;;1.05;;
49764;SDS011;35657;51.204;-4.130;2023-05-07T13:37:57;3.47;;;1.40;;
49764;SDS011;35657;51.204;-4.130;2023-05-07T13:40:23;3.15;;;1.25;;
49764;SDS011;35657;51.204;-4.130;2023-05-07T13:42:50;2.97;;;1.42;;
49764;SDS011;35657;51.204;-4.130;2023-05-07T13:45:16;2.92;;;1.55;;
49764;SDS011;35657;51.204;-4.130;2023-05-07T13:47:43;1.58;;;1.10;;
49764;SDS011;35657;51.204;-4.130;2023-05-07T13:50:09;3.67;;;1.00;;
49764;SDS011;35657;51.204;-4.130;2023-05-07T13:52:36;13.02;;;7.25;;
49764;SDS011;35657;51.204;-4.130;2023-05-07T13:55:02;6.80;;;2.95;;
49764;SDS011;35657;51.204;-4.130;2023-05-07T13:57:29;6.68;;;3.92;;
49764;SDS011;35657;51.204;-4.130;2023-05-07T13:59:54;4.03;;;1.30;;
49764;SDS011;35657;51.204;-4.130;2023-05-07T14:02:20;2.67;;;1.25;;
49764;SDS011;35657;51.204;-4.130;2023-05-07T14:04:46;3.60;;;1.13;;
49764;SDS011;35657;51.204;-4.130;2023-05-07T14:07:12;32.72;;;3.58;;
49764;SDS011;35657;51.204;-4.130;2023-05-07T14:09:37;2.00;;;0.90;;
49764;SDS011;35657;51.204;-4.130;2023-05-07T14:12:03;6.85;;;1.30;;
49764;SDS011;35657;51.204;-4.130;2023-05-07T14:14:29;2.08;;;1.10;;
49764;SDS011;35657;51.204;-4.130;2023-05-07T14:16:56;2.70;;;1.30;;
49764;SDS011;35657;51.204;-4.130;2023-05-07T14:19:22;0.75;;;0.57;;
49764;SDS011;35657;51.204;-4.130;2023-05-07T14:21:48;3.47;;;1.52;;
49764;SDS011;35657;51.204;-4.130;2023-05-07T14:24:14;5.18;;;0.95;;
49764;SDS011;35657;51.204;-4.130;2023-05-07T14:26:40;3.97;;;1.27;;
49764;SDS011;35657;51.204;-4.130;2023-05-07T14:29:05;3.95;;;1.08;;
49764;SDS011;35657;51.204;-4.130;2023-05-07T14:31:31;3.38;;;1.50;;
49764;SDS011;35657;51.204;-4.130;2023-05-07T14:33:57;3.22;;;1.30;;
49764;SDS011;35657;51.204;-4.130;2023-05-07T14:36:23;2.10;;;1.48;;
49764;SDS011;35657;51.204;-4.130;2023-05-07T14:38:51;5.38;;;1.83;;
49764;SDS011;35657;51.204;-4.130;2023-05-07T14:41:19;2.65;;;1.20;;
49764;SDS011;35657;51.204;-4.130;2023-05-07T14:43:46;4.18;;;1.58;;
49764;SDS011;35657;51.204;-4.130;2023-05-07T14:46:15;3.40;;;1.80;;